Main page
METAR-TAF:

METAR-TAF

Airports :

Naval Station Mayport

Mayport, Florida, United States

latitude: 30-23-45N, longitude: 081-25-21W, elevation: 16 ft

Current weather observation

The report was made 19 minutes ago, at 16:52 UTC
Wind 7 mph from the East
Temperature 72°F
Humidity 57%
Pressure 30.21 in. Hg
Visibility: 10 miles
Clear sky

METAR: KNRB 251652Z 08006KT 10SM CLR 22/13 A3021 RMK AO2 SLP229 T02220133

Time: 12:11 (17:11 UTC)

Forecast

Forecast valid from 25 at 15 UTC to 26 at 15 UTC
Wind 6 mph from the West/Northwest
Visibility 6.2 miles or more
Few clouds at a height of 3500 ft
From 25 at 1800 UTC
Wind 12 mph from the South/Southeast
Visibility 6.2 miles or more
Scattered clouds at a height of 3000 ft
From 26 at 0100 UTC
Wind 6 mph from variable directions
Few clouds at a height of 3000 ft
Few clouds at a height of 25000 ft

TAF: KNRB 2515/2615 29005KT 9999 FEW035 QNH3016INS FM251800 16010KT 9999 SCT030 QNH3009INS FM260100 VRB05KT FEW030 FEW250 QNH3012INS T25/2519Z T14/2611Z FN20022

Weather observations and forecasts of more than 4000 airports (METAR and TAF reports).

The available stations are represented by yellow and red dots on the map.

Hover mouse over dot to see the name of the station.

Then click to see weather observations and forecasts.

To change the map : click on the green buttons with a black cross to zoom in, on the green button with a dash to zoom out, or on the green arrows for adjacent maps.


METAR-TAF: